Tiempo atmosférico en la estación meteorológica de Coll De Nargó, Lleida (603 m.)



Fecha
DESCASC
Temp. máxima en grados centígrados (hora)
DESCASC
Temp. mínima en grados centígrados (hora)
DESCASC
Temp. media en grados centígrados
DESCASC
Racha de viento máxima en m/sg (hora)
DESCASC
Velocidad máxima media en intervalos de 10 minutos(hora)
DESCASC
Precipitaciones diarias en mm
DESCASC
Precipitaciones de 00:00 a 06:00 en mm
DESCASC
Precipitaciones de 06:00 a 12:00 en mm
DESCASC
Precipitaciones de 12:00 a 18:00 en mm
DESCASC
Precipitaciones de 18:00 a 24:00 en mm
DESCASC
15-08-2019 30.9 (16:20) 12.8 (07:10) 21.8 13.06 (22:40) 10 (14:40) 0 0 0 0 0
14-08-2019 29.4 (16:50) 10.8 (00:00) 20.1 13.61 (12:20) 11.39 (12:20) 0 0 0 0 0
13-08-2019 26.6 (16:30) 13.5 (00:00) 20.1 14.72 (12:10) 11.39 (11:50) 0 0 0 0 0
12-08-2019 28.1 (16:30) 18.4 (00:00) 23.3 13.33 (11:50) 11.11 (11:50) 0.4 0.4 0 0 0
11-08-2019 32.5 (15:30) 19.7 (00:00) 26.1 10.83 (14:10) 7.78 (14:10) 0 0 0 0 0
10-08-2019 33.1 (16:50) 18 (00:00) 25.5 14.72 (10:40) 12.22 (11:00) 0 0 0 0 0
09-08-2019 37.5 (15:20) 17.1 (00:00) 27.3 13.06 (16:20) 7.5 (19:00) 0 0 0 0 0
08-08-2019 33.1 (17:10) 16 (00:00) 24.5 11.11 (15:10) 7.5 (14:30) 0 0 0 0 0
07-08-2019 30.8 (14:10) 18.3 (00:00) 24.5 18.61 (16:40) 8.61 (12:00) 10.6 0 0 10.4 0.2
06-08-2019 35.6 (16:00) 17.1 (00:00) 26.3 11.39 (12:30) 7.5 (14:50) 0 0 0 0 0
05-08-2019 36 (16:00) 16.8 (00:00) 26.4 12.22 (20:10) 7.78 (21:30) 0 0 0 0 0
04-08-2019 36.4 (16:00) 15.8 (00:00) 26.1 12.78 (20:00) 8.06 (16:30) 0 0 0 0 0
03-08-2019 35.2 (16:00) 15.4 (00:00) 25.3 11.67 (20:10) 8.06 (14:20) 0 0 0 0 0
02-08-2019 32.7 (15:00) 16.2 (00:00) 24.5 13.06 (16:10) 8.61 (14:30) 1 1 0 0 0
01-08-2019 33.5 (16:30) 15.7 (00:00) 24.6 11.11 (17:00) 6.94 (22:10) 0.4 0.4 0 0 0
31-07-2019 29.9 (16:30) 13.9 (00:00) 21.9 13.33 (15:30) 9.44 (15:20) 0 0 0 0 0
30-07-2019 28.9 (16:40) 16.2 (00:00) 22.6 13.61 (11:40) 10.56 (11:20) 0 0 0 0 0
29-07-2019 32.3 (15:40) 11.5 (00:00) 21.9 10.28 (14:20) 7.22 (16:20) 0 0 0 0 0
28-07-2019 29.2 (13:50) 13.9 (00:00) 21.6 12.78 (16:20) 8.33 (14:40) 0 0 0 0 0
27-07-2019 26.3 (16:10) 14.5 (00:00) 20.4 12.5 (19:40) 8.89 (17:20) 21.4 0 21.2 0.2 0
26-07-2019 32.8 (13:00) 17.7 (00:00) 25.3 11.67 (17:00) 5.83 (14:20) 0.4 0 0 0.4 0
25-07-2019 37.7 (15:40) 17.5 (00:00) 27.6 12.5 (18:40) 8.06 (13:10) 0 0 0 0 0
24-07-2019 38.7 (16:50) 17.7 (00:00) 28.2 12.78 (20:00) 8.61 (13:00) 0 0 0 0 0
23-07-2019 39.7 (15:00) 17.4 (00:00) 28.6 11.67 (18:40) 7.78 (20:00) 0 0 0 0 0
22-07-2019 38.4 (15:10) 16.9 (00:00) 27.7 12.78 (16:30) 7.78 (16:40) 0 0 0 0 0
21-07-2019 36.1 (15:20) 16.8 (00:00) 26.4 11.11 (14:10) 7.78 (12:50) 0 0 0 0 0
20-07-2019 35.2 (16:30) 17.4 (00:00) 26.3 13.61 (18:50) 8.33 (21:10) 0 0 0 0 0
19-07-2019 32.4 (17:10) 14.9 (00:00) 23.7 12.5 (21:00) 8.89 (13:40) 0 0 0 0 0

Gráficas

Temp. máximas Temp. mínimas Temp. medias Precipitaciones Rachas de viento máximas Velocidades máximas media en intervalos de 10 minutos

Datos horarios

Fecha y hora oficial Temperatura (ºC) Velocidad del viento (km/h) Dirección del viento Racha (km/h) Dirección de racha Precipitación (mm) Presión (hPa) Tendencia (hPa) Humedad (%)
2019-08-17 23:00:00 25.3 24 Sur 32 Sur 0 -- -- 67
2019-08-17 22:00:00 26.3 18 Sur 40 Sur 0 -- -- 64
2019-08-17 21:00:00 27.7 21 Sur 44 Sur 0 -- -- 57
2019-08-17 20:00:00 30.3 22 Sur 35 Sur 0 -- -- 49
2019-08-17 19:00:00 32.5 16 Sur 41 Sur 0 -- -- 37
2019-08-17 18:00:00 33.9 20 Sur 37 Sur 0 -- -- 37
2019-08-17 17:00:00 34.6 23 Sur 38 Sudeste 0 -- -- 35
2019-08-17 16:00:00 35.3 26 Sur 37 Sur 0 -- -- 31
2019-08-17 15:00:00 35.1 27 Sur 36 Sur 0 -- -- 30
2019-08-17 14:00:00 34.2 26 Sur 35 Sur 0 -- -- 31
2019-08-17 13:00:00 33.5 21 Sur 26 Sur 0 -- -- 30
2019-08-17 12:00:00 31.4 5 Nordeste 12 Nordeste 0 -- -- 28
2019-08-17 11:00:00 28 5 Nordeste 10 Nordeste 0 -- -- 34
2019-08-17 10:00:00 25 6 Nordeste 10 Nordeste 0 -- -- 41
2019-08-17 09:00:00 22 4 Nordeste 10 Norte 0 -- -- 49
2019-08-17 08:00:00 16 4 Norte 7 Nordeste 0 -- -- 64
2019-08-17 07:00:00 15.6 3 Norte 8 Nordeste 0 -- -- 68
2019-08-17 06:00:00 15.2 4 Norte 7 Noroeste 0 -- -- 70
2019-08-17 05:00:00 15 5 Norte 8 Norte 0 -- -- 75
2019-08-17 04:00:00 15.5 5 Norte 8 Norte 0 -- -- 72
2019-08-17 03:00:00 16.1 7 Norte 8 Norte 0 -- -- 71
2019-08-17 02:00:00 17.3 5 Norte 6 Norte 0 -- -- 65
2019-08-17 01:00:00 19.3 4 Sur 6 Sur 0 -- -- 58
2019-08-17 00:00:00 20.7 0 Calma 8 Nordeste 0 -- -- 50
2019-08-16 23:00:00 21.8 3 Norte 7 Nordeste 0 -- -- 47
2019-08-16 22:00:00 24.4 6 Sur 18 Sur 0 -- -- 41
2019-08-16 21:00:00 25.7 15 Sur 30 Sudeste 0 -- -- 39
2019-08-16 20:00:00 27.4 22 Sur 34 Sudeste 0 -- -- 35
2019-08-16 19:00:00 29.7 26 Sudeste 39 Sur 0 -- -- 29
2019-08-16 18:00:00 30.9 23 Sur 43 Sur 0 -- -- 27
2019-08-16 17:00:00 31.6 27 Sudeste 49 Sur 0 -- -- 24
2019-08-16 16:00:00 31.6 29 Sur 47 Sur 0 -- -- 23
2019-08-16 15:00:00 30.9 30 Sur 43 Sur 0 -- -- 24
2019-08-16 14:00:00 30 31 Sur 42 Sur 0 -- -- 30
2019-08-16 13:00:00 28.8 29 Sur 43 Sur 0 -- -- 41
2019-08-16 12:00:00 27.4 30 Sur 37 Sur 0 -- -- 48
2019-08-16 11:00:00 27.4 3 Este 10 Sur 0 -- -- 50
2019-08-16 10:00:00 25.5 3 Nordeste 8 Nordeste 0 -- -- 53
2019-08-16 09:00:00 21.5 5 Norte 8 Norte 0 -- -- 67
2019-08-16 08:00:00 16.1 5 Norte 9 Norte 0 -- -- 92
2019-08-16 07:00:00 16.6 4 Norte 10 Norte 0 -- -- 89
2019-08-16 06:00:00 16.4 8 Norte 9 Norte 0 -- -- 90
2019-08-16 05:00:00 17.2 6 Norte 11 Norte 0 -- -- 89
2019-08-16 04:00:00 19.3 4 Sudeste 27 Sur 0 -- -- 83
2019-08-16 03:00:00 20.3 19 Sur 30 Sur 0 -- -- 83
2019-08-16 02:00:00 21 21 Sur 34 Sudeste 0 -- -- 79
2019-08-16 01:00:00 21.8 22 Sur 32 Sur 0 -- -- 77
2019-08-16 00:00:00 22.7 19 Sur 37 Sudeste 0 -- -- 75
2019-08-15 23:00:00 23.8 28 Sur 47 Sudeste 0 -- -- 70
2019-08-15 22:00:00 25.4 16 Sur 32 Sur 0 -- -- 44
2019-08-15 21:00:00 26.2 17 Sur 34 Sudoeste 0 -- -- 43
2019-08-15 20:00:00 27.7 28 Sur 40 Sur 0 -- -- 39
2019-08-15 19:00:00 28.8 23 Sur 42 Sur 0 -- -- 38
2019-08-15 18:00:00 30.2 29 Sudeste 46 Sudeste 0 -- -- 38
2019-08-15 17:00:00 29.2 31 Sudeste 46 Sudeste 0 -- -- 41
2019-08-15 16:00:00 30.6 28 Sur 45 Sur 0 -- -- 41
2019-08-15 15:00:00 30.4 34 Sur 46 Sur 0 -- -- 42
2019-08-15 14:00:00 29 35 Sur 46 Sur 0 -- -- 43
2019-08-15 13:00:00 28.6 32 Sudeste 46 Sur 0 -- -- 47
2019-08-15 12:00:00 27.4 29 Sur 41 Sur 0 -- -- 47
2019-08-15 11:00:00 24.7 3 Nordeste 9 Nordeste 0 -- -- 43
2019-08-15 10:00:00 24 6 Nordeste 11 Nordeste 0 -- -- 44
2019-08-15 09:00:00 19.7 5 Norte 7 Norte 0 -- -- 56
2019-08-15 08:00:00 13.2 5 Norte 8 Norte 0 -- -- 85
2019-08-15 07:00:00 12.9 6 Norte 9 Norte 0 -- -- 83
2019-08-15 06:00:00 13.6 6 Norte 8 Nordeste 0 -- -- 82
2019-08-15 05:00:00 14.5 7 Norte 9 Norte 0 -- -- 77
2019-08-15 04:00:00 15.2 5 Norte 7 Sur 0 -- -- 75
2019-08-15 03:00:00 16.7 2 Norte 7 Norte 0 -- -- 65
2019-08-15 02:00:00 16.9 2 Nordeste 8 Norte 0 -- -- 62
2019-08-15 01:00:00 18.1 6 Norte 13 Sur 0 -- -- 58
2019-08-15 00:00:00 20.7 6 Sur 18 Sudeste 0 -- -- 51
2019-08-14 23:00:00 22.1 8 Sudeste 27 Sur 0 -- -- 45
2019-08-14 22:00:00 23.5 10 Sur 17 Sur 0 -- -- 41
2019-08-14 21:00:00 25.2 15 Sur 34 Sur 0 -- -- 36
2019-08-14 20:00:00 26.4 21 Sur 37 Sudeste 0 -- -- 34
2019-08-14 19:00:00 27.8 29 Sur 41 Sudeste 0 -- -- 32
2019-08-14 18:00:00 28.6 31 Sur 44 Sur 0 -- -- 32
2019-08-14 17:00:00 29.3 30 Sur 44 Sur 0 -- -- 31
2019-08-14 16:00:00 29 31 Sur 46 Sur 0 -- -- 32
2019-08-14 15:00:00 28.4 32 Sur 45 Sur 0 -- -- 34
2019-08-14 14:00:00 27.2 33 Sur 44 Sudeste 0 -- -- 36
2019-08-14 13:00:00 25.4 36 Sur 49 Sur 0 -- -- 40
2019-08-14 12:00:00 23.4 35 Sur 43 Sur 0 -- -- 43
2019-08-14 11:00:00 22.8 21 Sur 27 Sur 0 -- -- 45
2019-08-14 10:00:00 21.9 4 Nordeste 12 Norte 0 -- -- 46
2019-08-14 09:00:00 18.3 5 Norte 10 Norte 0 -- -- 54
2019-08-14 08:00:00 11.7 3 Nordeste 8 Norte 0 -- -- 80
2019-08-14 07:00:00 10.9 5 Norte 8 Nordeste 0 -- -- 82
2019-08-14 06:00:00 11.6 5 Norte 7 Norte 0 -- -- 79
2019-08-14 05:00:00 12.2 5 Norte 9 Norte 0 -- -- 72
2019-08-14 04:00:00 13 3 Nordeste 6 Nordeste 0 -- -- 73
2019-08-14 03:00:00 13.7 3 Este 8 Nordeste 0 -- -- 65
2019-08-14 02:00:00 14.4 4 Nordeste 9 Norte 0 -- -- 64
2019-08-14 01:00:00 15.4 0 Calma 7 Nordeste 0 -- -- 57
2019-08-14 00:00:00 16.6 4 Nordeste 15 Sudeste 0 -- -- 54
2019-08-13 23:00:00 19.2 7 Sudeste 30 Sur 0 -- -- 45
2019-08-13 22:00:00 21.1 22 Sur 33 Sudeste 0 -- -- 39
2019-08-13 21:00:00 22.3 26 Sudeste 35 Sudeste 0 -- -- 38
2019-08-13 20:00:00 22.9 27 Sudeste 37 Sudeste 0 -- -- 44
2019-08-13 19:00:00 24.6 27 Sur 37 Sur 0 -- -- 41
2019-08-13 18:00:00 25.7 27 Sudeste 40 Sur 0 -- -- 39
2019-08-13 17:00:00 26.1 29 Sur 42 Sur 0 -- -- 37
2019-08-13 16:00:00 26 33 Sudeste 45 Sur 0 -- -- 38
2019-08-13 15:00:00 25.7 31 Sur 43 Sur 0 -- -- 39
2019-08-13 14:00:00 24.3 32 Sudeste 50 Sur 0 -- -- 41
2019-08-13 13:00:00 22.9 40 Sur 53 Sur 0 -- -- 46
2019-08-13 12:00:00 20.2 41 Sur 50 Sur 0 -- -- 54
2019-08-13 11:00:00 20.7 25 Sur 33 Sur 0 -- -- 52
2019-08-13 10:00:00 18.1 15 Sur 24 Sur 0 -- -- 59
2019-08-13 09:00:00 14.6 19 Sur 28 Sur 0 -- -- 70
2019-08-13 08:00:00 13.7 18 Sur 24 Sur 0 -- -- 73
2019-08-13 07:00:00 13.6 10 Sur 24 Sur 0 -- -- 73
2019-08-13 06:00:00 13.8 5 Sur 21 Sur 0 -- -- 72
2019-08-13 05:00:00 14 9 Sur 20 Sur 0 -- -- 73
2019-08-13 04:00:00 14.7 9 Sur 15 Sur 0 -- -- 68
2019-08-13 03:00:00 15.9 8 Sur 17 Sur 0 -- -- 62
2019-08-13 02:00:00 16.9 6 Norte 25 Norte 0 -- -- 56
2019-08-13 01:00:00 17.7 17 Norte 29 Norte 0 -- -- 54
2019-08-13 00:00:00 18.4 17 Norte 29 Norte 0 -- -- 52
2019-08-12 23:00:00 19.5 14 Norte 26 Norte 0 -- -- 49
2019-08-12 22:00:00 21.1 12 Norte 31 Sudeste 0 -- -- 45
2019-08-12 21:00:00 23.2 21 Sudeste 32 Sudeste 0 -- -- 33
2019-08-12 20:00:00 24.4 22 Sur 37 Sur 0 -- -- 33
2019-08-12 19:00:00 26.3 25 Sur 41 Oeste 0 -- -- 32
2019-08-12 18:00:00 26.2 22 Sur 44 Sur 0 -- -- 35
2019-08-12 17:00:00 27.5 27 Sudeste 42 Sur 0 -- -- 39
2019-08-12 16:00:00 28 27 Sur 46 Sur 0 -- -- 41
2019-08-12 15:00:00 26.9 32 Sur 46 Sudeste 0 -- -- 44
2019-08-12 14:00:00 26.3 34 Sur 47 Sur 0 -- -- 45
2019-08-12 13:00:00 25.1 35 Sur 48 Sur 0 -- -- 50
2019-08-12 12:00:00 23.6 40 Sur 48 Sur 0 -- -- 54
2019-08-12 11:00:00 22.5 31 Sur 39 Sur 0 -- -- 58
2019-08-12 10:00:00 20.1 26 Sur 41 Sur 0 -- -- 64
2019-08-12 09:00:00 19 29 Sur 36 Sudeste 0 -- -- 66
2019-08-12 08:00:00 19 25 Sudeste 33 Sudeste 0 -- -- 65
2019-08-12 07:00:00 19 11 Sur 22 Sur 0 -- -- 65
2019-08-12 06:00:00 19.7 17 Sur 36 Sudeste 0 -- -- 65
2019-08-12 05:00:00 20.3 24 Sudeste 41 Sudeste 0 -- -- 67
2019-08-12 04:00:00 21.1 22 Sur 44 Sudoeste 0.4 -- -- 83
2019-08-12 03:00:00 22.9 21 Sur 33 Sur 0 -- -- 77
2019-08-12 02:00:00 23.3 13 Sur 29 Sur 0 -- -- 77
2019-08-12 01:00:00 24.1 13 Sudoeste 32 Sur 0 -- -- 72
2019-08-12 00:00:00 24.9 10 Sur 23 Sudeste 0 -- -- 61
2019-08-11 23:00:00 25.3 10 Sur 20 Sudeste 0 -- -- 58
2019-08-11 22:00:00 25.9 14 Sur 33 Sur 0 -- -- 57
2019-08-11 21:00:00 26.6 17 Sudeste 37 Sur 0 -- -- 55
2019-08-11 20:00:00 27.4 22 Sur 36 Sur 0 -- -- 55
2019-08-11 19:00:00 31 14 Sur 26 Sur 0 -- -- 41
2019-08-11 18:00:00 30.8 15 Sur 30 Sur 0 -- -- 39
2019-08-11 17:00:00 30.9 15 Sur 37 Sudeste 0 -- -- 46
2019-08-11 16:00:00 30.1 21 Sudeste 33 Sur 0 -- -- 46
2019-08-11 15:00:00 28.8 23 Sudeste 39 Sur 0 -- -- 50
2019-08-11 14:00:00 31.4 26 Sur 35 Sur 0 -- -- 43
2019-08-11 13:00:00 30.2 20 Sur 27 Sur 0 -- -- 46
2019-08-11 12:00:00 27.4 15 Sur 27 Sur 0 -- -- 51
2019-08-11 11:00:00 26.7 18 Sur 35 Sudeste 0 -- -- 54
2019-08-11 10:00:00 25 13 Sur 30 Sur 0 -- -- 58
2019-08-11 09:00:00 23.7 18 Sur 24 Sur 0 -- -- 69
2019-08-11 08:00:00 20.4 12 Sur 18 Sur 0 -- -- 85
2019-08-11 07:00:00 19.8 5 Sur 10 Sur 0 -- -- 88
2019-08-11 06:00:00 19.9 3 Norte 9 Sur 0 -- -- 86
2019-08-11 05:00:00 20.9 3 Sur 10 Sur 0 -- -- 82
2019-08-11 04:00:00 21.9 7 Sur 22 Sur 0 -- -- 79
2019-08-11 03:00:00 23 21 Sur 30 Sur 0 -- -- 74
2019-08-11 02:00:00 23.6 24 Sur 36 Sudeste 0 -- -- 72
2019-08-11 01:00:00 24.6 23 Sudeste 31 Sur 0 -- -- 68
2019-08-11 00:00:00 25.2 12 Sur 29 Sudeste 0 -- -- 64
2019-08-10 23:00:00 26.1 13 Sudeste 29 Sudeste 0 -- -- 56
2019-08-10 22:00:00 27.1 6 Sur 18 Sur 0 -- -- 44
2019-08-10 21:00:00 28.7 13 Sur 27 Sur 0 -- -- 40
2019-08-10 20:00:00 29.9 18 Sur 33 Sur 0 -- -- 37
2019-08-10 19:00:00 31.3 18 Sur 32 Sur 0 -- -- 35
2019-08-10 18:00:00 31.5 19 Sur 36 Sur 0 -- -- 35
2019-08-10 17:00:00 32.5 29 Sur 45 Sur 0 -- -- 34
2019-08-10 16:00:00 32.4 30 Sudeste 48 Sudeste 0 -- -- 35
2019-08-10 15:00:00 32.2 31 Sur 44 Sudeste 0 -- -- 36
2019-08-10 14:00:00 31.1 31 Sudeste 43 Sur 0 -- -- 39
2019-08-10 13:00:00 30.6 32 Sudeste 45 Sur 0 -- -- 41
2019-08-10 12:00:00 28.8 36 Sur 50 Sur 0 -- -- 47
2019-08-10 11:00:00 26.1 44 Sur 53 Sur 0 -- -- 55
2019-08-10 10:00:00 25.7 26 Sudeste 40 Sur 0 -- -- 58
2019-08-10 09:00:00 22.9 10 Sur 24 Sur 0 -- -- 66
2019-08-10 08:00:00 18.1 4 Norte 6 Norte 0 -- -- 82
2019-08-10 07:00:00 19.1 2 Sudeste 10 Sur 0 -- -- 78
2019-08-10 06:00:00 20.6 10 Sur 23 Sur 0 -- -- 70
2019-08-10 05:00:00 21.8 13 Sur 37 Sur 0 -- -- 66
2019-08-10 04:00:00 21.3 12 Sur 22 Sur 0 -- -- 69
2019-08-10 03:00:00 22 2 Nordeste 5 Nordeste 0 -- -- 66
2019-08-10 02:00:00 22.8 2 Sur 8 Noroeste 0 -- -- 61
2019-08-10 01:00:00 24.4 2 Este 5 Nordeste 0 -- -- 51
2019-08-10 00:00:00 25.3 3 Norte 8 Nordeste 0 -- -- 45
2019-08-09 23:00:00 25.6 2 Norte 10 Norte 0 -- -- 44
2019-08-09 22:00:00 27.8 3 Sudoeste 7 Nordeste 0 -- -- 39
2019-08-09 21:00:00 30 5 Sur 17 Sudoeste 0 -- -- 33
2019-08-09 20:00:00 33.6 6 Sudoeste 33 Sur 0 -- -- 26
2019-08-09 19:00:00 34.6 27 Sur 43 Sudeste 0 -- -- 25
2019-08-09 18:00:00 36 24 Sur 39 Sur 0 -- -- 24
2019-08-09 17:00:00 37 25 Sur 47 Sur 0 -- -- 23
2019-08-09 16:00:00 36.5 14 Sur 42 Sur 0 -- -- 24
2019-08-09 15:00:00 37 13 Sur 30 Sudoeste 0 -- -- 25
2019-08-09 14:00:00 35.9 12 Sudoeste 42 Sur 0 -- -- 25
2019-08-09 13:00:00 35.7 12 Sudoeste 26 Oeste 0 -- -- 27
2019-08-09 12:00:00 33 4 Norte 12 Sudeste 0 -- -- 38
2019-08-09 11:00:00 29.8 4 Norte 12 Norte 0 -- -- 46
2019-08-09 10:00:00 26.7 8 Norte 12 Norte 0 -- -- 51
2019-08-09 09:00:00 24.1 5 Norte 8 Norte 0 -- -- 61
2019-08-09 08:00:00 18.2 4 Norte 8 Noroeste 0 -- -- 82
2019-08-09 07:00:00 17.1 5 Norte 8 Norte 0 -- -- 89
2019-08-09 06:00:00 18.3 4 Norte 8 Norte 0 -- -- 81
2019-08-09 05:00:00 18 6 Norte 10 Norte 0 -- -- 85
2019-08-09 04:00:00 18.5 5 Norte 8 Norte 0 -- -- 84
2019-08-09 03:00:00 19.1 6 Norte 8 Norte 0 -- -- 83
2019-08-09 02:00:00 20.4 4 Norte 8 Norte 0 -- -- 74
2019-08-09 01:00:00 21 5 Norte 7 Nordeste 0 -- -- 73
2019-08-09 00:00:00 22.8 3 Este 6 Sur 0 -- -- 61
2019-08-08 23:00:00 26 5 Sur 16 Sudeste 0 -- -- 50
2019-08-08 22:00:00 26.7 13 Sur 22 Sur 0 -- -- 47
2019-08-08 21:00:00 28.4 18 Sudeste 28 Sur 0 -- -- 43
2019-08-08 20:00:00 29.6 21 Sur 33 Sur 0 -- -- 42
2019-08-08 19:00:00 30.9 18 Sur 32 Sur 0 -- -- 38
2019-08-08 18:00:00 32.5 21 Sur 37 Sur 0 -- -- 36
2019-08-08 17:00:00 32.2 22 Sur 36 Sur 0 -- -- 40
2019-08-08 16:00:00 32.5 24 Sudeste 40 Sur 0 -- -- 42
2019-08-08 15:00:00 32.7 27 Sur 38 Sur 0 -- -- 41
2019-08-08 14:00:00 31.8 27 Sur 39 Sur 0 -- -- 42
2019-08-08 13:00:00 31 22 Sur 28 Sur 0 -- -- 47
2019-08-08 12:00:00 30.3 11 Sudeste 20 Sur 0 -- -- 47
2019-08-08 11:00:00 27.6 5 Nordeste 8 Nordeste 0 -- -- 54
2019-08-08 10:00:00 25.1 5 Nordeste 10 Nordeste 0 -- -- 66
2019-08-08 09:00:00 22.2 6 Norte 8 Norte 0 -- -- 75
2019-08-08 08:00:00 16.3 5 Nordeste 9 Norte 0 -- -- 98
2019-08-08 07:00:00 16.1 4 Norte 9 Nordeste 0 -- -- 98
2019-08-08 06:00:00 16.4 5 Norte 8 Nordeste 0 -- -- 98
2019-08-08 05:00:00 17.1 7 Nordeste 9 Nordeste 0 -- -- 98
2019-08-08 04:00:00 17.1 6 Norte 9 Nordeste 0 -- -- 98
2019-08-08 03:00:00 17.8 3 Norte 7 Norte 0 -- -- 97
2019-08-08 02:00:00 17.9 5 Norte 9 Nordeste 0 -- -- 97
2019-08-08 01:00:00 18.3 5 Nordeste 8 Nordeste 0 -- -- 96
2019-08-08 00:00:00 18.5 6 Nordeste 11 Norte 0 -- -- 96
2019-08-07 23:00:00 19.2 5 Norte 8 Norte 0 -- -- 94
2019-08-07 22:00:00 19.6 2 Noroeste 18 Norte 0 -- -- 96
2019-08-07 21:00:00 20.4 4 Norte 10 Nordeste 0 -- -- 90
2019-08-07 20:00:00 20.8 2 Sur 18 Norte 0.2 -- -- 89
2019-08-07 19:00:00 20.9 5 Nordeste 14 Norte 0 -- -- 94
2019-08-07 18:00:00 19.5 9 Norte 15 Norte 0 -- -- 96
2019-08-07 17:00:00 18.9 11 Sudoeste 67 Oeste 10.4 -- -- 91
2019-08-07 16:00:00 28 21 Sur 44 Sudeste 0 -- -- 52
2019-08-07 15:00:00 30.4 24 Sur 39 Sudeste 0 -- -- 46
2019-08-07 14:00:00 30.1 26 Sudeste 38 Sur 0 -- -- 48
2019-08-07 13:00:00 29.2 24 Sudeste 37 Sur 0 -- -- 50
2019-08-07 12:00:00 28.4 31 Sur 39 Sudeste 0 -- -- 54
2019-08-07 11:00:00 27.7 23 Sur 31 Sur 0 -- -- 58
2019-08-07 10:00:00 24.9 10 Sudeste 16 Sudeste 0 -- -- 63
2019-08-07 09:00:00 21.8 2 Nordeste 9 Norte 0 -- -- 60
2019-08-07 08:00:00 19 4 Norte 11 Norte 0 -- -- 67
2019-08-07 07:00:00 18.6 7 Norte 17 Sudeste 0 -- -- 66
2019-08-07 06:00:00 19.3 6 Este 23 Sudeste 0 -- -- 67
2019-08-07 05:00:00 19.2 5 Norte 8 Nordeste 0 -- -- 65
2019-08-07 04:00:00 19.8 2 Este 9 Nordeste 0 -- -- 62
2019-08-07 03:00:00 -- 5 Sur 6 Sur 0 -- -- --
2019-08-07 02:00:00 21 3 Norte 6 Norte 0 -- -- 51
2019-08-07 01:00:00 21.1 5 Norte 6 Norte 0 -- -- 52
2019-08-07 00:00:00 21.9 4 Norte 8 Sur 0 -- -- 48
2019-08-06 23:00:00 24.8 5 Sur 12 Sur 0 -- -- 41
2019-08-06 22:00:00 26.2 0 Calma 10 Sur 0 -- -- 35
2019-08-06 21:00:00 28 7 Sur 15 Sur 0 -- -- 34
2019-08-06 20:00:00 30.6 11 Sur 28 Sur 0 -- -- 31
2019-08-06 19:00:00 32.9 18 Sur 37 Sur 0 -- -- 32
2019-08-06 18:00:00 33.6 21 Sur 35 Sudeste 0 -- -- 33
2019-08-06 17:00:00 34.6 25 Sur 36 Sudeste 0 -- -- 32
2019-08-06 16:00:00 35.6 23 Sudeste 35 Sur 0 -- -- 29
2019-08-06 15:00:00 34.9 27 Sur 36 Sur 0 -- -- 30
2019-08-06 14:00:00 34.8 25 Sur 36 Sur 0 -- -- 32
2019-08-06 13:00:00 33.4 23 Sur 41 Sur 0 -- -- 34
2019-08-06 12:00:00 31.9 22 Sur 32 Sur 0 -- -- 37
2019-08-06 11:00:00 30.1 5 Nordeste 10 Nordeste 0 -- -- 39
2019-08-06 10:00:00 26.6 6 Nordeste 12 Nordeste 0 -- -- 48
2019-08-06 09:00:00 23.2 6 Norte 9 Norte 0 -- -- 60
2019-08-06 08:00:00 17.6 5 Norte 7 Nordeste 0 -- -- 79
2019-08-06 07:00:00 17.7 5 Norte 8 Norte 0 -- -- 76
2019-08-06 06:00:00 18.4 2 Norte 9 Norte 0 -- -- 73
2019-08-06 05:00:00 18.6 4 Norte 5 Norte 0 -- -- 75
2019-08-06 04:00:00 19.7 0 Calma 6 Nordeste 0 -- -- 68
2019-08-06 03:00:00 20.2 0 Calma 6 Nordeste 0 -- -- 64
2019-08-06 02:00:00 21 2 Norte 7 Nordeste 0 -- -- 62
2019-08-06 01:00:00 22.9 2 Sudeste 8 Norte 0 -- -- 56
2019-08-06 00:00:00 24.6 3 Nordeste 16 Sur 0 -- -- 52
2019-08-05 23:00:00 26.3 11 Sur 30 Sudeste 0 -- -- 47
2019-08-05 22:00:00 27.7 20 Sur 41 Sudeste 0 -- -- 43
2019-08-05 21:00:00 29.4 17 Sur 44 Sudoeste 0 -- -- 40
2019-08-05 20:00:00 31.4 22 Sudoeste 38 Sur 0 -- -- 35
2019-08-05 19:00:00 33.5 16 Sur 41 Sudeste 0 -- -- 30
2019-08-05 18:00:00 34.7 22 Sur 36 Sur 0 -- -- 28
2019-08-05 17:00:00 35.6 20 Sur 36 Sur 0 -- -- 25
2019-08-05 16:00:00 36 19 Sur 42 Sur 0 -- -- 27
2019-08-05 15:00:00 35.7 23 Sur 38 Sur 0 -- -- 28
2019-08-05 14:00:00 34.5 24 Sur 37 Sur 0 -- -- 31
2019-08-05 13:00:00 33.4 23 Sur 37 Sur 0 -- -- 32
2019-08-05 12:00:00 31.3 13 Sur 22 Sur 0 -- -- 35
2019-08-05 11:00:00 29.6 4 Nordeste 10 Nordeste 0 -- -- 46
2019-08-05 10:00:00 26.8 5 Nordeste 9 Nordeste 0 -- -- 51
2019-08-05 09:00:00 22.3 6 Norte 9 Norte 0 -- -- 67
2019-08-05 08:00:00 17.7 5 Norte 7 Norte 0 -- -- 87
2019-08-05 07:00:00 16.9 5 Norte 6 Norte 0 -- -- 89
2019-08-05 06:00:00 17.9 3 Norte 7 Norte 0 -- -- 84
2019-08-05 05:00:00 18.1 6 Norte 7 Norte 0 -- -- 84
2019-08-05 04:00:00 19.2 2 Norte 3 Norte 0 -- -- 79
2019-08-05 03:00:00 20.5 0 Calma 5 Norte 0 -- -- 71
2019-08-05 02:00:00 20.6 4 Norte 5 Norte 0 -- -- 71
2019-08-05 01:00:00 22.5 0 Calma 8 Nordeste 0 -- -- 63
2019-08-05 00:00:00 23.3 3 Oeste 12 Sudoeste 0 -- -- 60
2019-08-04 23:00:00 25.7 10 Sur 23 Sur 0 -- -- 52
2019-08-04 22:00:00 27.2 14 Sur 28 Sur 0 -- -- 49
2019-08-04 21:00:00 28.6 20 Sur 43 Sudoeste 0 -- -- 46
2019-08-04 20:00:00 30.7 26 Sudoeste 46 Sudoeste 0 -- -- 40
2019-08-04 19:00:00 32.6 17 Sur 45 Sudoeste 0 -- -- 38
2019-08-04 18:00:00 34.7 21 Sur 46 Sur 0 -- -- 30
2019-08-04 17:00:00 35.3 27 Sur 40 Sur 0 -- -- 29
2019-08-04 16:00:00 36.4 23 Sudeste 40 Sur 0 -- -- 28
2019-08-04 15:00:00 35.8 23 Sur 35 Sur 0 -- -- 27
2019-08-04 14:00:00 34.8 26 Sur 36 Sur 0 -- -- 31
2019-08-04 13:00:00 33.3 24 Sur 32 Sur 0 -- -- 34
2019-08-04 12:00:00 32.4 4 Nordeste 9 Nordeste 0 -- -- 36
2019-08-04 11:00:00 29.8 3 Nordeste 12 Norte 0 -- -- 42
2019-08-04 10:00:00 26.3 5 Nordeste 9 Norte 0 -- -- 50
2019-08-04 09:00:00 22.9 5 Norte 7 Norte 0 -- -- 61
2019-08-04 08:00:00 17.3 4 Norte 8 Noroeste 0 -- -- 81
2019-08-04 07:00:00 15.8 5 Norte 7 Noroeste 0 -- -- 86
2019-08-04 06:00:00 16.6 4 Norte 8 Norte 0 -- -- 83
2019-08-04 05:00:00 16.7 5 Norte 8 Norte 0 -- -- 82
2019-08-04 04:00:00 18.1 3 Nordeste 5 Norte 0 -- -- 77
2019-08-04 03:00:00 19.7 0 Calma 3 Este 0 -- -- 69
2019-08-04 02:00:00 20.2 2 Nordeste 6 Nordeste 0 -- -- 67
2019-08-04 01:00:00 21 3 Nordeste 7 Nordeste 0 -- -- 62
2019-08-04 00:00:00 23.6 3 Sudeste 14 Sur 0 -- -- 53
2019-08-03 23:00:00 24.6 11 Sur 26 Sur 0 -- -- 50
2019-08-03 22:00:00 27 18 Sur 31 Sudeste 0 -- -- 43
2019-08-03 21:00:00 28.5 23 Sur 42 Sudeste 0 -- -- 41
2019-08-03 20:00:00 30.3 22 Sur 40 Sur 0 -- -- 37
2019-08-03 19:00:00 32.5 20 Sur 41 Sur 0 -- -- 32
2019-08-03 18:00:00 34.1 24 Sudeste 38 Sudeste 0 -- -- 28
2019-08-03 17:00:00 34.1 24 Sur 40 Sudeste 0 -- -- 28
2019-08-03 16:00:00 35.2 22 Sur 36 Sur 0 -- -- 28
2019-08-03 15:00:00 34.7 22 Sur 40 Sur 0 -- -- 29
2019-08-03 14:00:00 33.2 27 Sudeste 38 Sur 0 -- -- 32
2019-08-03 13:00:00 31.6 25 Sudeste 31 Sur 0 -- -- 38
2019-08-03 12:00:00 30.2 13 Sudeste 21 Sudeste 0 -- -- 40
2019-08-03 11:00:00 28 4 Nordeste 10 Norte 0 -- -- 45
2019-08-03 10:00:00 25.9 6 Nordeste 13 Norte 0 -- -- 53
2019-08-03 09:00:00 22.4 8 Norte 10 Norte 0 -- -- 60
2019-08-03 08:00:00 17.8 3 Norte 5 Norte 0 -- -- 79
2019-08-03 07:00:00 15.5 4 Norte 8 Norte 0 -- -- 87
2019-08-03 06:00:00 15.6 7 Norte 10 Nordeste 0 -- -- 84
2019-08-03 05:00:00 16.4 7 Norte 11 Norte 0 -- -- 80
2019-08-03 04:00:00 17 3 Nordeste 8 Norte 0 -- -- 78
2019-08-03 03:00:00 18 4 Nordeste 8 Nordeste 0 -- -- 74
2019-08-03 02:00:00 20.4 3 Sur 33 Sur 0 -- -- 63
2019-08-03 01:00:00 22.1 26 Sur 35 Sur 0 -- -- 56
2019-08-03 00:00:00 22.9 27 Sur 38 Sur 0 -- -- 55
2019-08-02 23:00:00 24.1 21 Sur 37 Sur 0 -- -- 50
2019-08-02 22:00:00 25.7 23 Sur 42 Sur 0 -- -- 46
2019-08-02 21:00:00 27.8 20 Sudeste 34 Sudeste 0 -- -- 44
2019-08-02 20:00:00 29.1 24 Sudeste 36 Sur 0 -- -- 40
2019-08-02 19:00:00 30.9 27 Sudeste 41 Sur 0 -- -- 36
2019-08-02 18:00:00 31.8 23 Sudeste 45 Sur 0 -- -- 36
2019-08-02 17:00:00 31.8 29 Sur 47 Sudeste 0 -- -- 37
2019-08-02 16:00:00 32.2 28 Sudeste 45 Sudeste 0 -- -- 37
2019-08-02 15:00:00 32.7 26 Sur 43 Sur 0 -- -- 36
2019-08-02 14:00:00 31.2 29 Sur 39 Sur 0 -- -- 38
2019-08-02 13:00:00 29.2 31 Sur 41 Sur 0 -- -- 42
2019-08-02 12:00:00 28.5 18 Sur 26 Sur 0 -- -- 47
2019-08-02 11:00:00 27.2 4 Este 10 Sur 0 -- -- 50
2019-08-02 10:00:00 25.3 5 Nordeste 10 Nordeste 0 -- -- 60
2019-08-02 09:00:00 21.7 5 Nordeste 12 Norte 0 -- -- 73
2019-08-02 08:00:00 18.3 5 Nordeste 9 Norte 0 -- -- 91
2019-08-02 07:00:00 16.5 3 Norte 12 Nordeste 0 -- -- 94
2019-08-02 06:00:00 17.2 9 Nordeste 19 Noroeste 0 -- -- 89
2019-08-02 05:00:00 16.8 8 Norte 15 Nordeste 0 -- -- 94
2019-08-02 04:00:00 17.1 9 Nordeste 20 Oeste 0.2 -- -- 91
2019-08-02 03:00:00 17.2 8 Oeste 19 Norte 0.8 -- -- 90
2019-08-02 02:00:00 20.1 7 Sur 25 Sur 0 -- -- 63
2019-08-02 01:00:00 21.2 5 Sudoeste 12 Sur 0 -- -- 54
2019-08-02 00:00:00 22 5 Sudoeste 19 Sur 0 -- -- 50
2019-08-01 23:00:00 23.6 15 Sur 30 Sur 0 -- -- 45
2019-08-01 22:00:00 25.3 22 Sur 34 Sudeste 0 -- -- 40
2019-08-01 21:00:00 27.2 16 Sur 30 Sudoeste 0 -- -- 39
2019-08-01 20:00:00 29 12 Sur 25 Sudoeste 0 -- -- 37
2019-08-01 19:00:00 30.4 12 Sur 28 Sudeste 0 -- -- 31
2019-08-01 18:00:00 32.1 18 Sur 37 Sur 0 -- -- 28
2019-08-01 17:00:00 32.3 20 Sur 40 Sur 0 -- -- 27
2019-08-01 16:00:00 33.3 16 Sur 38 Sudeste 0 -- -- 26
2019-08-01 15:00:00 32.3 22 Sur 32 Sur 0 -- -- 28
2019-08-01 14:00:00 31.4 18 Sudeste 35 Sur 0 -- -- 38
2019-08-01 13:00:00 30.1 19 Sur 31 Sur 0 -- -- 42
2019-08-01 12:00:00 29.3 19 Sudeste 29 Este 0 -- -- 45
2019-08-01 11:00:00 29.3 4 Este 9 Norte 0 -- -- 43
2019-08-01 10:00:00 25.5 6 Nordeste 12 Nordeste 0 -- -- 53
2019-08-01 09:00:00 22.2 8 Norte 10 Norte 0 -- -- 64
2019-08-01 08:00:00 17.8 4 Norte 9 Nordeste 0 -- -- 87
2019-08-01 07:00:00 15.7 5 Nordeste 8 Norte 0 -- -- 96
2019-08-01 06:00:00 16.3 5 Norte 8 Norte 0 -- -- 95
2019-08-01 05:00:00 17 3 Nordeste 7 Norte 0 -- -- 94
2019-08-01 04:00:00 17 4 Nordeste 8 Norte 0 -- -- 94
2019-08-01 03:00:00 17.7 3 Nordeste 8 Nordeste 0 -- -- 91
2019-08-01 02:00:00 18.2 3 Oeste 12 Nordeste 0.2 -- -- 86
2019-08-01 01:00:00 19 6 Norte 9 Norte 0.2 -- -- 76
2019-08-01 00:00:00 20.6 6 Norte 19 Sur 0 -- -- 63
2019-07-31 23:00:00 22.4 10 Sur 20 Sur 0 -- -- 61
2019-07-31 22:00:00 23.2 8 Sur 19 Sur 0 -- -- 53
2019-07-31 21:00:00 25.1 13 Sur 24 Sur 0 -- -- 46
2019-07-31 20:00:00 26.6 18 Sur 30 Sudeste 0 -- -- 42
2019-07-31 19:00:00 28 19 Sur 34 Sur 0 -- -- 39
2019-07-31 18:00:00 28.8 26 Sur 36 Sur 0 -- -- 38
2019-07-31 17:00:00 29.7 24 Sur 41 Sur 0 -- -- 36
2019-07-31 16:00:00 29.3 28 Sudeste 48 Sudeste 0 -- -- 34
2019-07-31 15:00:00 28.9 30 Sur 43 Sur 0 -- -- 34
2019-07-31 14:00:00 28.6 31 Sur 42 Sur 0 -- -- 35
2019-07-31 13:00:00 28.1 15 Sur 20 Sudeste 0 -- -- 39
2019-07-31 12:00:00 25.5 4 Sudeste 26 Sur 0 -- -- 46
2019-07-31 11:00:00 23.3 8 Sur 26 Sur 0 -- -- 52
2019-07-31 10:00:00 19.7 16 Sur 23 Sur 0 -- -- 63
2019-07-31 09:00:00 20.9 3 Este 8 Nordeste 0 -- -- 55
2019-07-31 08:00:00 16.8 3 Norte 5 Norte 0 -- -- 74
2019-07-31 07:00:00 14.2 3 Norte 6 Norte 0 -- -- 83
2019-07-31 06:00:00 14.3 4 Nordeste 6 Nordeste 0 -- -- 85
2019-07-31 05:00:00 16.1 0 Calma 6 Este 0 -- -- 73
2019-07-31 04:00:00 16.6 3 Norte 8 Norte 0 -- -- 70
2019-07-31 03:00:00 16.7 7 Norte 13 Nordeste 0 -- -- 73
2019-07-31 02:00:00 18.9 8 Sur 20 Sudeste 0 -- -- 72
2019-07-31 01:00:00 20.5 14 Sur 30 Sur 0 -- -- 68
2019-07-31 00:00:00 21.1 14 Sudeste 26 Sudeste 0 -- -- 55
2019-07-30 23:00:00 21.8 5 Sur 11 Oeste 0 -- -- 47
2019-07-30 22:00:00 23 0 Calma 23 Sudeste 0 -- -- 43
2019-07-30 21:00:00 24.4 14 Sur 37 Sudoeste 0 -- -- 43
2019-07-30 20:00:00 25.5 19 Sur 36 Sudeste 0 -- -- 48
2019-07-30 19:00:00 26.9 22 Sur 38 Sudeste 0 -- -- 45
2019-07-30 18:00:00 27.4 28 Sur 44 Sudeste 0 -- -- 43
2019-07-30 17:00:00 28.5 30 Sur 42 Sur 0 -- -- 40
2019-07-30 16:00:00 28.4 31 Sur 42 Sur 0 -- -- 40
2019-07-30 15:00:00 28.4 26 Sur 40 Sur 0 -- -- 43
2019-07-30 14:00:00 27.7 23 Sur 41 Sur 0 -- -- 48
2019-07-30 13:00:00 25.9 31 Sur 47 Sur 0 -- -- 54
2019-07-30 12:00:00 24.5 37 Sur 49 Sur 0 -- -- 59
2019-07-30 11:00:00 23.2 33 Sur 41 Sur 0 -- -- 63
2019-07-30 10:00:00 20.3 31 Sur 38 Sur 0 -- -- 71
2019-07-30 09:00:00 20 22 Sudeste 31 Sudeste 0 -- -- 72
2019-07-30 08:00:00 17.9 3 Norte 8 Sur 0 -- -- 73
2019-07-30 07:00:00 16.2 3 Norte 8 Nordeste 0 -- -- 79
2019-07-30 06:00:00 16.8 2 Sur 6 Norte 0 -- -- 72
2019-07-30 05:00:00 17.8 3 Norte 7 Norte 0 -- -- 65
2019-07-30 04:00:00 17.4 6 Norte 8 Norte 0 -- -- 70
2019-07-30 03:00:00 18 3 Nordeste 6 Norte 0 -- -- 66
2019-07-30 02:00:00 18 4 Norte 5 Nordeste 0 -- -- 65
2019-07-30 01:00:00 19.2 3 Nordeste 6 Norte 0 -- -- 56
2019-07-30 00:00:00 20 4 Norte 8 Nordeste 0 -- -- 53
2019-07-29 23:00:00 23.1 5 Sudoeste 9 Sudeste 0 -- -- 43
2019-07-29 22:00:00 25.2 6 Sur 23 Sur 0 -- -- 36
2019-07-29 21:00:00 26.8 18 Sur 28 Sur 0 -- -- 33
2019-07-29 20:00:00 28.7 15 Sur 26 Sur 0 -- -- 31
2019-07-29 19:00:00 30.6 18 Sur 32 Sur 0 -- -- 28
2019-07-29 18:00:00 31.4 21 Sur 35 Sudeste 0 -- -- 28
2019-07-29 17:00:00 31.7 25 Sur 35 Sudeste 0 -- -- 29
2019-07-29 16:00:00 31.7 21 Sudeste 31 Sur 0 -- -- 30
2019-07-29 15:00:00 32.1 18 Sur 37 Sur 0 -- -- 25
2019-07-29 14:00:00 31.3 19 Sur 32 Sudeste 0 -- -- 25
2019-07-29 13:00:00 29.2 23 Sudeste 33 Sudeste 0 -- -- 33
2019-07-29 12:00:00 28.2 12 Sudeste 24 Sur 0 -- -- 37
2019-07-29 11:00:00 25.2 3 Nordeste 12 Norte 0 -- -- 44
2019-07-29 10:00:00 23 7 Nordeste 12 Nordeste 0 -- -- 48
2019-07-29 09:00:00 19.8 4 Norte 11 Nordeste 0 -- -- 57
2019-07-29 08:00:00 15.5 4 Norte 8 Nordeste 0 -- -- 78
2019-07-29 07:00:00 11.6 4 Norte 7 Nordeste 0 -- -- 92
2019-07-29 06:00:00 12 4 Norte 10 Nordeste 0 -- -- 88
2019-07-29 05:00:00 12.3 6 Norte 10 Nordeste 0 -- -- 87
2019-07-29 04:00:00 13.1 5 Norte 7 Norte 0 -- -- 86
2019-07-29 03:00:00 14.1 0 Calma 6 Norte 0 -- -- 80
2019-07-29 02:00:00 15.1 3 Norte 5 Norte 0 -- -- 73
2019-07-29 01:00:00 15.9 4 Nordeste 8 Nordeste 0 -- -- 69
2019-07-29 00:00:00 17.6 0 Calma 5 Sur 0 -- -- 59
2019-07-28 23:00:00 20 5 Sur 14 Sur 0 -- -- 51
2019-07-28 22:00:00 21.3 9 Sur 22 Sur 0 -- -- 45
2019-07-28 21:00:00 22.9 15 Sur 32 Sur 0 -- -- 39
2019-07-28 20:00:00 24.4 22 Sudeste 39 Sur 0 -- -- 38
2019-07-28 19:00:00 26 24 Sudeste 41 Sudeste 0 -- -- 36
2019-07-28 18:00:00 26.6 23 Sudeste 39 Sur 0 -- -- 35
2019-07-28 17:00:00 27.3 28 Sur 46 Sur 0 -- -- 35
2019-07-28 16:00:00 27.7 26 Sur 42 Sur 0 -- -- 35
2019-07-28 15:00:00 26.7 29 Sur 43 Sur 0 -- -- 37
2019-07-28 14:00:00 28.7 12 Sur 24 Sur 0 -- -- 29
2019-07-28 13:00:00 27.8 9 Nordeste 26 Norte 0 -- -- 28
2019-07-28 12:00:00 25.9 18 Norte 41 Norte 0 -- -- 30
2019-07-28 11:00:00 24.2 24 Nordeste 39 Norte 0 -- -- 32
2019-07-28 10:00:00 23.5 19 Norte 33 Norte 0 -- -- 35
2019-07-28 09:00:00 21.4 15 Norte 25 Norte 0 -- -- 42
2019-07-28 08:00:00 17.8 10 Norte 20 Nordeste 0 -- -- 53
2019-07-28 07:00:00 14.7 11 Norte 22 Norte 0 -- -- 57
2019-07-28 06:00:00 15.2 16 Norte 26 Norte 0 -- -- 54
2019-07-28 05:00:00 15.5 12 Norte 32 Norte 0 -- -- 56
2019-07-28 04:00:00 17 21 Norte 45 Norte 0 -- -- 53
2019-07-28 03:00:00 14.7 14 Norte 21 Norte 0 -- -- 70
2019-07-28 02:00:00 14.5 4 Norte 11 Norte 0 -- -- 80
2019-07-28 01:00:00 14.4 10 Norte 20 Norte 0 -- -- 84
2019-07-28 00:00:00 15.1 11 Nordeste 15 Norte 0 -- -- 83
2019-07-27 23:00:00 16.2 7 Norte 15 Norte 0 -- -- 75
2019-07-26 12:00:00 -- -- -- -- -- -- -- -- --
2019-07-26 11:00:00 -- -- -- -- -- -- -- -- --
2019-07-26 10:00:00 27.8 5 Nordeste 13 Nordeste 0 -- -- 40
2019-07-26 09:00:00 22.7 3 Norte 8 Nordeste 0 -- -- 52
2019-07-26 08:00:00 19.4 4 Norte 8 Noroeste 0 -- -- 64
2019-07-26 07:00:00 18.2 5 Norte 8 Noroeste 0 -- -- 72
2019-07-26 06:00:00 17.9 5 Norte 7 Norte 0 -- -- 73
2019-07-26 05:00:00 18 5 Norte 8 Norte 0 -- -- 70
2019-07-26 04:00:00 18.2 6 Norte 8 Nordeste 0 -- -- 67
2019-07-26 03:00:00 18.9 4 Norte 10 Norte 0 -- -- 61
2019-07-26 02:00:00 19.6 4 Nordeste 9 Norte 0 -- -- 62
2019-07-26 01:00:00 21.3 3 Norte 6 Nordeste 0 -- -- 56
2019-07-26 00:00:00 23 4 Nordeste 11 Sur 0 -- -- 50
2019-07-25 23:00:00 24.9 5 Sudeste 22 Sudoeste 0 -- -- 44
2019-07-25 22:00:00 27.6 11 Sur 31 Sudoeste 0 -- -- 37
2019-07-25 21:00:00 29.3 18 Sur 31 Sudeste 0 -- -- 34
2019-07-25 20:00:00 31.1 17 Sur 42 Sudoeste 0 -- -- 31
2019-07-25 19:00:00 33.3 20 Sudoeste 45 Sudoeste 0 -- -- 27
2019-07-25 18:00:00 35.6 17 Sur 39 Sudeste 0 -- -- 25
2019-07-25 17:00:00 36.9 19 Sur 33 Sur 0 -- -- 21
2019-07-25 16:00:00 37.6 21 Sur 34 Sur 0 -- -- 20
2019-07-25 15:00:00 37.2 23 Sur 35 Sudeste 0 -- -- 20
2019-07-25 14:00:00 36.2 23 Sur 37 Sur 0 -- -- 24
2019-07-25 13:00:00 34.7 27 Sur 35 Sudeste 0 -- -- 26
2019-07-25 12:00:00 33.7 18 Sur 25 Sudeste 0 -- -- 29
2019-07-25 11:00:00 31.4 3 Nordeste 10 Norte 0 -- -- 38
2019-07-25 10:00:00 27.4 6 Nordeste 10 Nordeste 0 -- -- 46
2019-07-25 09:00:00 25.3 5 Nordeste 8 Nordeste 0 -- -- 51
2019-07-25 08:00:00 20.5 3 Norte 6 Norte 0 -- -- 68
2019-07-25 07:00:00 17.6 4 Norte 6 Norte 0 -- -- 76
2019-07-25 06:00:00 17.7 5 Norte 8 Norte 0 -- -- 78
2019-07-25 05:00:00 18.4 5 Norte 9 Norte 0 -- -- 73
2019-07-25 04:00:00 19.6 5 Norte 8 Norte 0 -- -- 68
2019-07-25 03:00:00 20.1 6 Norte 9 Norte 0 -- -- 65
2019-07-25 02:00:00 21.2 5 Norte 7 Norte 0 -- -- 62
2019-07-25 01:00:00 23.3 3 Nordeste 9 Nordeste 0 -- -- 53
2019-07-25 00:00:00 25.5 6 Sur 28 Sur 0 -- -- 49
2019-07-24 23:00:00 27.8 23 Sur 31 Sudeste 0 -- -- 42
2019-07-24 22:00:00 29 19 Sur 29 Sur 0 -- -- 39
2019-07-24 21:00:00 30.8 26 Sur 45 Sudeste 0 -- -- 36
2019-07-24 20:00:00 32.4 30 Sur 46 Sur 0 -- -- 35
2019-07-24 19:00:00 35.2 20 Sur 42 Sudeste 0 -- -- 32
2019-07-24 18:00:00 37.5 17 Sur 37 Sur 0 -- -- 19
2019-07-24 17:00:00 38 20 Sur 39 Sur 0 -- -- 17
2019-07-24 16:00:00 38.2 23 Sur 39 Sur 0 -- -- 20
2019-07-24 15:00:00 37.9 25 Sur 36 Sur 0 -- -- 23
2019-07-24 14:00:00 36.4 28 Sur 41 Sur 0 -- -- 25
2019-07-24 13:00:00 35.1 31 Sur 40 Sur 0 -- -- 26
2019-07-24 12:00:00 34 22 Sur 30 Sur 0 -- -- 28
2019-07-24 11:00:00 31.4 3 Nordeste 10 Norte 0 -- -- 33
2019-07-24 10:00:00 28.8 4 Norte 12 Norte 0 -- -- 36
2019-07-24 09:00:00 25.8 7 Nordeste 15 Norte 0 -- -- 44
2019-07-24 08:00:00 21.4 2 Norte 14 Noroeste 0 -- -- 53
2019-07-24 07:00:00 18.6 5 Norte 8 Norte 0 -- -- 62
2019-07-24 06:00:00 18.8 6 Norte 10 Nordeste 0 -- -- 59
2019-07-24 05:00:00 19.4 4 Norte 9 Noroeste 0 -- -- 60
2019-07-24 04:00:00 18.9 6 Norte 9 Norte 0 -- -- 63
2019-07-24 03:00:00 20.3 7 Nordeste 10 Nordeste 0 -- -- 57
2019-07-24 02:00:00 21.4 8 Norte 10 Nordeste 0 -- -- 55
2019-07-24 01:00:00 23.3 5 Norte 8 Nordeste 0 -- -- 45
2019-07-24 00:00:00 26.6 4 Sudoeste 23 Sur 0 -- -- 40
2019-07-23 23:00:00 28.2 21 Sur 34 Sur 0 -- -- 37
2019-07-23 22:00:00 30.1 17 Sur 33 Sur 0 -- -- 34
2019-07-23 21:00:00 32.2 17 Sur 40 Sur 0 -- -- 30
2019-07-23 20:00:00 34.4 28 Sur 39 Sur 0 -- -- 22
2019-07-23 19:00:00 36.2 21 Sur 42 Sur 0 -- -- 19
2019-07-23 18:00:00 37.7 18 Sur 37 Sur 0 -- -- 18
2019-07-23 17:00:00 38.4 24 Sur 40 Sur 0 -- -- 18
2019-07-23 16:00:00 38.5 19 Sudeste 38 Sur 0 -- -- 18
2019-07-23 15:00:00 39.7 14 Sudeste 31 Sudoeste 0 -- -- 17
2019-07-23 14:00:00 39.1 12 Sudeste 25 Sur 0 -- -- 17
2019-07-23 13:00:00 37.9 7 Sudeste 14 Nordeste 0 -- -- 22
2019-07-23 12:00:00 34 6 Norte 13 Norte 0 -- -- 28
2019-07-23 11:00:00 31.6 8 Nordeste 13 Nordeste 0 -- -- 34
2019-07-23 10:00:00 28.4 8 Nordeste 12 Nordeste 0 -- -- 39
2019-07-23 09:00:00 25.1 5 Nordeste 11 Nordeste 0 -- -- 44
2019-07-23 08:00:00 20.7 3 Norte 9 Norte 0 -- -- 58
2019-07-23 07:00:00 17.7 4 Norte 7 Nordeste 0 -- -- 65
2019-07-23 06:00:00 18.2 3 Norte 8 Norte 0 -- -- 62
2019-07-23 05:00:00 19.5 5 Norte 9 Norte 0 -- -- 59
2019-07-23 04:00:00 18.4 8 Norte 11 Norte 0 -- -- 62
2019-07-23 03:00:00 19.4 6 Norte 10 Norte 0 -- -- 61
2019-07-23 02:00:00 20.2 5 Nordeste 9 Nordeste 0 -- -- 56
2019-07-23 01:00:00 22.4 4 Norte 5 Sudeste 0 -- -- 50
2019-07-23 00:00:00 24.1 5 Nordeste 12 Sur 0 -- -- 42
2019-07-22 23:00:00 27.1 9 Sur 22 Sur 0 -- -- 39
2019-07-22 22:00:00 29.1 17 Sudeste 29 Sudeste 0 -- -- 34
2019-07-22 21:00:00 31.1 15 Sur 35 Sur 0 -- -- 28
2019-07-22 20:00:00 34 14 Sur 30 Sudoeste 0 -- -- 24
2019-07-22 19:00:00 35.7 19 Sur 33 Sudoeste 0 -- -- 20
2019-07-22 18:00:00 37 21 Sur 36 Sur 0 -- -- 18
2019-07-22 17:00:00 37.8 17 Sur 46 Sur 0 -- -- 18
2019-07-22 16:00:00 38.2 21 Sur 37 Sudeste 0 -- -- 20
2019-07-22 15:00:00 38.3 24 Sur 35 Sur 0 -- -- 20
2019-07-22 14:00:00 37.2 22 Sur 30 Sur 0 -- -- 23
2019-07-22 13:00:00 36.4 19 Sur 27 Sudeste 0 -- -- 26
2019-07-22 12:00:00 33.6 5 Norte 12 Nordeste 0 -- -- 33
2019-07-22 11:00:00 30.9 7 Nordeste 13 Nordeste 0 -- -- 39
2019-07-22 10:00:00 27.3 8 Norte 12 Nordeste 0 -- -- 46
2019-07-22 09:00:00 24.7 5 Norte 8 Nordeste 0 -- -- 53
2019-07-22 08:00:00 20.2 4 Norte 9 Norte 0 -- -- 67
2019-07-22 07:00:00 17.3 5 Norte 8 Norte 0 -- -- 75
2019-07-22 06:00:00 17.8 6 Norte 10 Norte 0 -- -- 72
2019-07-22 05:00:00 18.1 8 Norte 10 Norte 0 -- -- 72
2019-07-22 04:00:00 18.7 7 Nordeste 10 Nordeste 0 -- -- 69
2019-07-22 03:00:00 19.8 8 Nordeste 10 Norte 0 -- -- 63
2019-07-22 02:00:00 21.4 6 Nordeste 8 Nordeste 0 -- -- 58
2019-07-22 01:00:00 22.9 5 Norte 20 Sur 0 -- -- 52
2019-07-22 00:00:00 25.2 19 Sur 34 Sur 0 -- -- 45
2019-07-21 23:00:00 26.4 23 Sur 28 Sur 0 -- -- 42
2019-07-21 22:00:00 27.8 19 Sur 37 Sur 0 -- -- 39
2019-07-21 21:00:00 29.6 19 Sur 39 Sur 0 -- -- 35
2019-07-21 20:00:00 31.7 15 Sur 28 Sudeste 0 -- -- 36
2019-07-21 19:00:00 34 16 Sur 32 Sur 0 -- -- 26
2019-07-21 18:00:00 35 21 Sudeste 34 Sudeste 0 -- -- 25
2019-07-21 17:00:00 35.6 23 Sur 36 Sur 0 -- -- 25
2019-07-21 16:00:00 35.8 24 Sur 40 Sur 0 -- -- 24
2019-07-21 15:00:00 35.6 23 Sur 40 Sur 0 -- -- 27
2019-07-21 14:00:00 34.3 26 Sur 37 Sur 0 -- -- 30
2019-07-21 13:00:00 33 28 Sur 36 Sur 0 -- -- 32
2019-07-21 12:00:00 32.1 14 Sudeste 24 Sur 0 -- -- 36
2019-07-21 11:00:00 29.9 6 Nordeste 11 Nordeste 0 -- -- 42
2019-07-21 10:00:00 27.4 6 Nordeste 10 Nordeste 0 -- -- 48
2019-07-21 09:00:00 24.5 5 Nordeste 8 Norte 0 -- -- 56
2019-07-21 08:00:00 19.6 4 Noroeste 8 Norte 0 -- -- 70
2019-07-21 07:00:00 16.9 5 Norte 9 Norte 0 -- -- 82
2019-07-21 06:00:00 17.1 6 Norte 8 Norte 0 -- -- 77
2019-07-21 05:00:00 17.8 6 Norte 10 Norte 0 -- -- 73
2019-07-21 04:00:00 18.3 7 Nordeste 9 Nordeste 0 -- -- 68
2019-07-21 03:00:00 19.8 4 Norte 8 Norte 0 -- -- 65
2019-07-21 02:00:00 20.8 3 Norte 10 Sur 0 -- -- 64
2019-07-21 01:00:00 23 10 Sur 20 Sudeste 0 -- -- 62
2019-07-21 00:00:00 24 13 Sur 35 Sur 0 -- -- 60
2019-07-20 23:00:00 25.2 16 Sur 37 Sur 0 -- -- 56
2019-07-20 22:00:00 26.4 26 Sur 39 Sudeste 0 -- -- 53
2019-07-20 21:00:00 27.8 30 Sudeste 43 Sudeste 0 -- -- 47
2019-07-20 20:00:00 29.8 26 Sur 44 Sur 0 -- -- 42
2019-07-20 19:00:00 32.5 28 Sur 49 Sur 0 -- -- 37
2019-07-20 18:00:00 34.9 11 Sur 33 Sur 0 -- -- 26
2019-07-20 17:00:00 35.1 23 Sur 36 Sur 0 -- -- 28
2019-07-20 16:00:00 34.6 26 Sur 44 Sur 0 -- -- 29
2019-07-20 15:00:00 33.7 28 Sur 39 Sur 0 -- -- 31
2019-07-20 14:00:00 33.1 25 Sur 33 Sudeste 0 -- -- 33
2019-07-20 13:00:00 31.5 22 Sur 30 Sur 0 -- -- 35
2019-07-20 12:00:00 29.3 23 Sur 29 Sur 0 -- -- 43
2019-07-20 11:00:00 27.4 14 Sudeste 21 Sur 0 -- -- 47
2019-07-20 10:00:00 25 6 Sur 13 Sur 0 -- -- 54
2019-07-20 09:00:00 24.5 0 Calma 6 Norte 0 -- -- 64
2019-07-20 08:00:00 19.2 0 Calma 5 Norte 0 -- -- 84
2019-07-20 07:00:00 17.5 4 Norte 6 Norte 0 -- -- 91
2019-07-20 06:00:00 17.8 5 Norte 7 Norte 0 -- -- 88
2019-07-20 05:00:00 18.8 4 Nordeste 8 Nordeste 0 -- -- 83
2019-07-20 04:00:00 18.9 2 Oeste 10 Sur 0 -- -- 83
2019-07-20 03:00:00 18.8 6 Nordeste 10 Nordeste 0 -- -- 84
2019-07-20 02:00:00 19.6 3 Nordeste 7 Nordeste 0 -- -- 78
2019-07-20 01:00:00 20.6 4 Nordeste 9 Sudoeste 0 -- -- 73
2019-07-20 00:00:00 22.4 5 Sur 25 Sur 0 -- -- 65
2019-07-19 23:00:00 23.7 18 Sur 29 Sur 0 -- -- 62
2019-07-19 22:00:00 24.7 22 Sur 42 Sudeste 0 -- -- 59
2019-07-19 21:00:00 26.2 28 Sur 45 Sur 0 -- -- 56
2019-07-19 20:00:00 28.7 23 Sudeste 44 Sur 0 -- -- 50
2019-07-19 19:00:00 31.1 16 Sur 34 Sur 0 -- -- 31
2019-07-19 18:00:00 31.8 23 Sur 35 Sudeste 0 -- -- 31
2019-07-19 17:00:00 32.3 23 Sur 42 Sur 0 -- -- 31
2019-07-19 16:00:00 32.1 26 Sur 40 Sur 0 -- -- 34
2019-07-19 15:00:00 31.3 31 Sur 41 Sur 0 -- -- 39
2019-07-19 14:00:00 30.3 31 Sur 41 Sur 0 -- -- 41
2019-07-19 13:00:00 29.3 30 Sur 40 Sur 0 -- -- 43
2019-07-19 12:00:00 28 27 Sur 37 Sur 0 -- -- 47
2019-07-19 11:00:00 27.3 4 Sudeste 10 Nordeste 0 -- -- 49
2019-07-19 10:00:00 25.1 6 Nordeste 11 Nordeste 0 -- -- 55
2019-07-19 09:00:00 23.2 5 Nordeste 9 Nordeste 0 -- -- 61
2019-07-19 08:00:00 18.4 2 Norte 6 Norte 0 -- -- 83
2019-07-19 07:00:00 14.9 3 Norte 8 Nordeste 0 -- -- 96
2019-07-19 06:00:00 15.6 3 Norte 4 Norte 0 -- -- 95
2019-07-19 05:00:00 15.9 3 Norte 7 Norte 0 -- -- 93
2019-07-19 04:00:00 16.6 5 Norte 9 Norte 0 -- -- 89
2019-07-19 03:00:00 17.7 8 Norte 23 Sudeste 0 -- -- 84
2019-07-19 02:00:00 20.2 18 Sudeste 36 Sur 0 -- -- 81
2019-07-19 01:00:00 21.1 24 Sudeste 33 Sur 0 -- -- 77
2019-07-19 00:00:00 21.6 12 Sudeste 22 Sudeste 0 -- -- 72